Lady Mary — WCY4834 — position and weather

sailwx.info

Track history (hours):
 
Tides and Currents Weather Stations Pressure Air Temp Water Temp Dewpoint Dewpoint Depression Visibility Wind Speed Wind Dir Waves Ship Positions

Lady Mary

Owner: BLACKMAN, JOHN H, SEATTLE, WA. More information available from US FCC via Universal Licensing System and Coast Guard Vessel Documentation Center.

Last reported at 2016-Dec-10 08:32 UTC. Time now 2016-Dec-10 09:01 UTC.
Position N 47°40' W 122°13'.

Length 26 m.

Type: Passenger vessel. MMSI: 367013060.

Date/timePositionNaut miles runAvg speedWind from/ knotsBaromVisibWave heightAir tempDewpointWater temp
2016-Dec-10 08:32N 47°40' W 122°13'1 0.8
2016-Dec-10 07:33N 47°40' W 122°14'5 5.1
2016-Dec-10 06:33N 47°38' W 122°20'2 1.7
2016-Dec-10 05:33N 47°39' W 122°22'3 2.8
2016-Dec-10 04:33N 47°39' W 122°17'  
2016-Dec-06 18:14N 47°40' W 122°13'0 0.0
2016-Dec-06 17:32N 47°40' W 122°13'0 0.0
2016-Dec-06 16:30N 47°40' W 122°13'0 0.0
2016-Dec-06 15:22N 47°40' W 122°13'0 0.0
2016-Dec-06 14:28N 47°40' W 122°13'0 0.0
2016-Dec-06 13:29N 47°40' W 122°13'0 0.0
2016-Dec-06 12:33N 47°40' W 122°13'0 0.0
2016-Dec-06 11:33N 47°40' W 122°13'0 0.0
2016-Dec-06 10:31N 47°40' W 122°13'0 0.0
2016-Dec-06 09:32N 47°40' W 122°13'0 0.0
2016-Dec-06 08:32N 47°40' W 122°13'0 0.0
2016-Dec-06 07:33N 47°40' W 122°13'0 0.0
2016-Dec-06 06:31N 47°40' W 122°13'0 0.0
2016-Dec-06 05:29N 47°40' W 122°13'0 0.0
2016-Dec-06 04:29N 47°40' W 122°13'0 0.0
2016-Dec-06 03:33N 47°40' W 122°13'0 0.0
2016-Dec-06 02:34N 47°40' W 122°13'0 0.0
2016-Dec-06 01:31N 47°40' W 122°13'0 0.0
2016-Dec-06 00:33N 47°40' W 122°13'2 1.9
2016-Dec-05 23:30N 47°41' W 122°15'4 4.4
2016-Dec-05 22:33N 47°39' W 122°20'4 4.2
2016-Dec-05 21:33N 47°39' W 122°14'1 1.5
2016-Dec-05 20:33N 47°40' W 122°13'0 0.0
2016-Dec-05 19:33N 47°40' W 122°13'0 0.0
2016-Dec-05 18:33N 47°40' W 122°13'0 0.0
2016-Dec-05 17:32N 47°40' W 122°13'0 0.0
2016-Dec-05 16:33N 47°40' W 122°13'0 0.0
2016-Dec-05 15:30N 47°40' W 122°13'0 0.0
2016-Dec-05 14:31N 47°40' W 122°13'0 0.0
2016-Dec-05 13:31N 47°40' W 122°13'0 0.0
2016-Dec-05 12:31N 47°40' W 122°13'0 0.0
2016-Dec-05 11:32N 47°40' W 122°13'0 0.0
2016-Dec-05 10:33N 47°40' W 122°13'0 0.0
2016-Dec-05 09:33N 47°40' W 122°13'0 0.0
2016-Dec-05 08:31N 47°40' W 122°13'0 0.0
2016-Dec-05 07:32N 47°40' W 122°13'0 0.0
2016-Dec-05 06:32N 47°40' W 122°13'0 0.0
2016-Dec-05 05:33N 47°40' W 122°13'0 0.0
2016-Dec-05 04:31N 47°40' W 122°13'0 0.0
2016-Dec-05 03:31N 47°40' W 122°13'0 0.0
2016-Dec-05 02:29N 47°40' W 122°13'0 0.0
2016-Dec-05 01:33N 47°40' W 122°13'0 0.0
2016-Dec-05 00:33N 47°40' W 122°13'3 2.6
2016-Dec-04 23:32N 47°39' W 122°16'3 3.3
2016-Dec-04 22:33N 47°39' W 122°21'1 0.9
2016-Dec-04 21:33N 47°38' W 122°20'3 3.5
2016-Dec-04 20:33N 47°40' W 122°24'5 4.5
2016-Dec-04 19:33N 47°36' W 122°20'0 0.0
2016-Dec-04 18:33N 47°36' W 122°20'0 0.0
2016-Dec-04 17:33N 47°36' W 122°20'0 0.0
2016-Dec-04 16:31N 47°36' W 122°20'0 0.0
2016-Dec-04 15:31N 47°36' W 122°20'0 0.0
2016-Dec-04 14:32N 47°36' W 122°20'0 0.0
2016-Dec-04 13:32N 47°36' W 122°20'0 0.0
2016-Dec-04 12:33N 47°36' W 122°20'0 0.0
2016-Dec-04 11:31N 47°36' W 122°20'0 0.0
2016-Dec-04 10:32N 47°36' W 122°20'0 0.0
2016-Dec-04 09:32N 47°36' W 122°20'0 0.0
2016-Dec-04 08:33N 47°36' W 122°20'0 0.0
2016-Dec-04 07:33N 47°36' W 122°20'1 0.6
2016-Dec-04 06:33N 47°36' W 122°21'1 1.1
2016-Dec-04 05:33N 47°35' W 122°22'1 1.0
2016-Dec-04 04:33N 47°36' W 122°23'2 1.6
2016-Dec-04 03:33N 47°36' W 122°20'0 0.0
2016-Dec-04 02:33N 47°36' W 122°20'1 1.5
2016-Dec-04 01:33N 47°35' W 122°21'3 3.4
2016-Dec-04 00:33N 47°32' W 122°19'5 4.8
2016-Dec-03 23:33N 47°36' W 122°22'1 0.9
2016-Dec-03 22:33N 47°36' W 122°20'0 0.0
2016-Dec-03 21:33N 47°36' W 122°20'5 5.1
2016-Dec-03 20:33N 47°39' W 122°26'4 4.4
2016-Dec-03 19:33N 47°39' W 122°20'5 5.2
2016-Dec-03 18:32N 47°40' W 122°13'0 0.0
2016-Dec-03 17:27N 47°40' W 122°13'0 0.0
2016-Dec-03 16:31N 47°40' W 122°13'0 0.0
2016-Dec-03 15:31N 47°40' W 122°13'0 0.0
2016-Dec-03 14:32N 47°40' W 122°13'0 0.0
2016-Dec-03 13:33N 47°40' W 122°13'0 0.0
2016-Dec-03 12:33N 47°40' W 122°13'0 0.0
2016-Dec-03 11:31N 47°40' W 122°13'0 0.0
2016-Dec-03 10:32N 47°40' W 122°13'0 0.0
2016-Dec-03 09:33N 47°40' W 122°13'0 0.0
2016-Dec-03 08:33N 47°40' W 122°13'0 0.0
2016-Dec-03 07:31N 47°40' W 122°13'0 0.0
2016-Dec-03 06:31N 47°40' W 122°13'0 0.0
2016-Dec-03 05:32N 47°40' W 122°13'0 0.0
2016-Dec-03 04:33N 47°40' W 122°13'0 0.0
2016-Dec-03 03:33N 47°40' W 122°13'0 0.0
2016-Dec-03 02:31N 47°40' W 122°13'0 0.0
2016-Dec-03 01:32N 47°40' W 122°13'0 0.0
2016-Dec-03 00:32N 47°40' W 122°13'0 0.0
2016-Dec-02 23:33N 47°40' W 122°13'0 0.0
2016-Dec-02 22:31N 47°40' W 122°13'0 0.0
2016-Dec-02 21:31N 47°40' W 122°13'0 0.0
2016-Dec-02 20:32N 47°40' W 122°13'0 0.0
2016-Dec-02 19:33N 47°40' W 122°13'0 0.0
2016-Dec-02 18:31N 47°40' W 122°13'0 0.0
2016-Dec-02 17:31N 47°40' W 122°13'0 0.0
2016-Dec-02 16:32N 47°40' W 122°13'0 0.0
2016-Dec-02 15:32N 47°40' W 122°13'0 0.0
2016-Dec-02 14:33N 47°40' W 122°13'0 0.0
2016-Dec-02 13:31N 47°40' W 122°13'0 0.0
2016-Dec-02 12:31N 47°40' W 122°13'0 0.0
2016-Dec-02 11:32N 47°40' W 122°13'0 0.0
2016-Dec-02 10:33N 47°40' W 122°13'0 0.0
2016-Dec-02 09:33N 47°40' W 122°13'0 0.0
2016-Dec-02 08:28N 47°40' W 122°13'0 0.0
2016-Dec-02 07:32N 47°40' W 122°13'0 0.0
2016-Dec-02 06:33N 47°40' W 122°13'0 0.0
2016-Dec-02 05:33N 47°40' W 122°13'0 0.0
2016-Dec-02 04:31N 47°40' W 122°13'0 0.0
2016-Dec-02 03:31N 47°40' W 122°13'0 0.0
2016-Dec-02 02:32N 47°40' W 122°13'0 0.0
2016-Dec-02 01:33N 47°40' W 122°13'0 0.0
2016-Dec-02 00:33N 47°40' W 122°13'0 0.0
2016-Dec-01 23:31N 47°40' W 122°13'0 0.0
2016-Dec-01 22:29N 47°40' W 122°13'0 0.0
2016-Dec-01 21:32N 47°40' W 122°13'0 0.0
2016-Dec-01 20:30N 47°40' W 122°13'0 0.0
2016-Dec-01 19:31N 47°40' W 122°13'0 0.0
2016-Dec-01 18:32N 47°40' W 122°13'0 0.0
2016-Dec-01 17:20N 47°40' W 122°13'0 0.0
2016-Dec-01 16:33N 47°40' W 122°13'0 0.0
2016-Dec-01 15:33N 47°40' W 122°13'0 0.0
2016-Dec-01 14:31N 47°40' W 122°13'0 0.0
2016-Dec-01 13:32N 47°40' W 122°13'0 0.0
2016-Dec-01 12:33N 47°40' W 122°13'0 0.0
2016-Dec-01 11:33N 47°40' W 122°13'0 0.0
2016-Dec-01 10:31N 47°40' W 122°13'0 0.0
2016-Dec-01 09:31N 47°40' W 122°13'0 0.0
2016-Dec-01 08:32N 47°40' W 122°13'0 0.0
2016-Dec-01 07:33N 47°40' W 122°13'0 0.0
2016-Dec-01 06:33N 47°40' W 122°13'0 0.0
2016-Dec-01 05:32N 47°40' W 122°13'0 0.0
2016-Dec-01 04:32N 47°40' W 122°13'0 0.0
2016-Dec-01 03:26N 47°40' W 122°13'0 0.0
2016-Dec-01 02:30N 47°40' W 122°13'0 0.0
2016-Dec-01 01:13N 47°40' W 122°13'0 0.0
2016-Dec-01 00:31N 47°40' W 122°13'0 0.0
2016-Nov-30 23:32N 47°40' W 122°13'0 0.0
2016-Nov-30 22:33N 47°40' W 122°13'0 0.0
2016-Nov-30 21:33N 47°40' W 122°13'0 0.0
2016-Nov-30 20:31N 47°40' W 122°13'0 0.0
2016-Nov-30 19:29N 47°40' W 122°13'0 0.0
2016-Nov-30 18:32N 47°40' W 122°13'0 0.0
2016-Nov-30 17:30N 47°40' W 122°13'0 0.0
2016-Nov-30 16:31N 47°40' W 122°13'0 0.0
2016-Nov-30 15:28N 47°40' W 122°13'0 0.0
2016-Nov-30 14:32N 47°40' W 122°13'0 0.0
2016-Nov-30 13:33N 47°40' W 122°13'0 0.0
2016-Nov-30 12:33N 47°40' W 122°13'0 0.0
2016-Nov-30 11:31N 47°40' W 122°13'0 0.0
2016-Nov-30 10:32N 47°40' W 122°13'0 0.0
2016-Nov-30 09:32N 47°40' W 122°13'0 0.0
2016-Nov-30 08:33N 47°40' W 122°13'  
Track history (hours):
 
Tides and Currents Weather Stations Pressure Air Temp Water Temp Dewpoint Dewpoint Depression Visibility Wind Speed Wind Dir Waves Ship Positions

Lady Mary

Owner: BLACKMAN, JOHN H, SEATTLE, WA. More information available from US FCC via Universal Licensing System and Coast Guard Vessel Documentation Center.

Last reported at 2016-Dec-10 08:32 UTC. Time now 2016-Dec-10 09:01 UTC.
Position N 47°40' W 122°13'.

Length 26 m.

Type: Passenger vessel. MMSI: 367013060.

Date/timePositionNaut miles runAvg speedWind from/ knotsBaromVisibWave heightAir tempDewpointWater temp
2016-Dec-10 08:32N 47°40' W 122°13'1 0.8
2016-Dec-10 07:33N 47°40' W 122°14'5 5.1
2016-Dec-10 06:33N 47°38' W 122°20'2 1.7
2016-Dec-10 05:33N 47°39' W 122°22'3 2.8
2016-Dec-10 04:33N 47°39' W 122°17'  
2016-Dec-06 18:14N 47°40' W 122°13'0 0.0
2016-Dec-06 17:32N 47°40' W 122°13'0 0.0
2016-Dec-06 16:30N 47°40' W 122°13'0 0.0
2016-Dec-06 15:22N 47°40' W 122°13'0 0.0
2016-Dec-06 14:28N 47°40' W 122°13'0 0.0
2016-Dec-06 13:29N 47°40' W 122°13'0 0.0
2016-Dec-06 12:33N 47°40' W 122°13'0 0.0
2016-Dec-06 11:33N 47°40' W 122°13'0 0.0
2016-Dec-06 10:31N 47°40' W 122°13'0 0.0
2016-Dec-06 09:32N 47°40' W 122°13'0 0.0
2016-Dec-06 08:32N 47°40' W 122°13'0 0.0
2016-Dec-06 07:33N 47°40' W 122°13'0 0.0
2016-Dec-06 06:31N 47°40' W 122°13'0 0.0
2016-Dec-06 05:29N 47°40' W 122°13'0 0.0
2016-Dec-06 04:29N 47°40' W 122°13'0 0.0
2016-Dec-06 03:33N 47°40' W 122°13'0 0.0
2016-Dec-06 02:34N 47°40' W 122°13'0 0.0
2016-Dec-06 01:31N 47°40' W 122°13'0 0.0
2016-Dec-06 00:33N 47°40' W 122°13'2 1.9
2016-Dec-05 23:30N 47°41' W 122°15'4 4.4
2016-Dec-05 22:33N 47°39' W 122°20'4 4.2
2016-Dec-05 21:33N 47°39' W 122°14'1 1.5
2016-Dec-05 20:33N 47°40' W 122°13'0 0.0
2016-Dec-05 19:33N 47°40' W 122°13'0 0.0
2016-Dec-05 18:33N 47°40' W 122°13'0 0.0
2016-Dec-05 17:32N 47°40' W 122°13'0 0.0
2016-Dec-05 16:33N 47°40' W 122°13'0 0.0
2016-Dec-05 15:30N 47°40' W 122°13'0 0.0
2016-Dec-05 14:31N 47°40' W 122°13'0 0.0
2016-Dec-05 13:31N 47°40' W 122°13'0 0.0
2016-Dec-05 12:31N 47°40' W 122°13'0 0.0
2016-Dec-05 11:32N 47°40' W 122°13'0 0.0
2016-Dec-05 10:33N 47°40' W 122°13'0 0.0
2016-Dec-05 09:33N 47°40' W 122°13'0 0.0
2016-Dec-05 08:31N 47°40' W 122°13'0 0.0
2016-Dec-05 07:32N 47°40' W 122°13'0 0.0
2016-Dec-05 06:32N 47°40' W 122°13'0 0.0
2016-Dec-05 05:33N 47°40' W 122°13'0 0.0
2016-Dec-05 04:31N 47°40' W 122°13'0 0.0
2016-Dec-05 03:31N 47°40' W 122°13'0 0.0
2016-Dec-05 02:29N 47°40' W 122°13'0 0.0
2016-Dec-05 01:33N 47°40' W 122°13'0 0.0
2016-Dec-05 00:33N 47°40' W 122°13'3 2.6
2016-Dec-04 23:32N 47°39' W 122°16'3 3.3
2016-Dec-04 22:33N 47°39' W 122°21'1 0.9
2016-Dec-04 21:33N 47°38' W 122°20'3 3.5
2016-Dec-04 20:33N 47°40' W 122°24'5 4.5
2016-Dec-04 19:33N 47°36' W 122°20'0 0.0
2016-Dec-04 18:33N 47°36' W 122°20'0 0.0
2016-Dec-04 17:33N 47°36' W 122°20'0 0.0
2016-Dec-04 16:31N 47°36' W 122°20'0 0.0
2016-Dec-04 15:31N 47°36' W 122°20'0 0.0
2016-Dec-04 14:32N 47°36' W 122°20'0 0.0
2016-Dec-04 13:32N 47°36' W 122°20'0 0.0
2016-Dec-04 12:33N 47°36' W 122°20'0 0.0
2016-Dec-04 11:31N 47°36' W 122°20'0 0.0
2016-Dec-04 10:32N 47°36' W 122°20'0 0.0
2016-Dec-04 09:32N 47°36' W 122°20'0 0.0
2016-Dec-04 08:33N 47°36' W 122°20'0 0.0
2016-Dec-04 07:33N 47°36' W 122°20'1 0.6
2016-Dec-04 06:33N 47°36' W 122°21'1 1.1
2016-Dec-04 05:33N 47°35' W 122°22'1 1.0
2016-Dec-04 04:33N 47°36' W 122°23'2 1.6
2016-Dec-04 03:33N 47°36' W 122°20'0 0.0
2016-Dec-04 02:33N 47°36' W 122°20'1 1.5
2016-Dec-04 01:33N 47°35' W 122°21'3 3.4
2016-Dec-04 00:33N 47°32' W 122°19'5 4.8
2016-Dec-03 23:33N 47°36' W 122°22'1 0.9
2016-Dec-03 22:33N 47°36' W 122°20'0 0.0
2016-Dec-03 21:33N 47°36' W 122°20'5 5.1
2016-Dec-03 20:33N 47°39' W 122°26'4 4.4
2016-Dec-03 19:33N 47°39' W 122°20'5 5.2
2016-Dec-03 18:32N 47°40' W 122°13'0 0.0
2016-Dec-03 17:27N 47°40' W 122°13'0 0.0
2016-Dec-03 16:31N 47°40' W 122°13'0 0.0
2016-Dec-03 15:31N 47°40' W 122°13'0 0.0
2016-Dec-03 14:32N 47°40' W 122°13'0 0.0
2016-Dec-03 13:33N 47°40' W 122°13'0 0.0
2016-Dec-03 12:33N 47°40' W 122°13'0 0.0
2016-Dec-03 11:31N 47°40' W 122°13'0 0.0
2016-Dec-03 10:32N 47°40' W 122°13'0 0.0
2016-Dec-03 09:33N 47°40' W 122°13'0 0.0
2016-Dec-03 08:33N 47°40' W 122°13'0 0.0
2016-Dec-03 07:31N 47°40' W 122°13'0 0.0
2016-Dec-03 06:31N 47°40' W 122°13'0 0.0
2016-Dec-03 05:32N 47°40' W 122°13'0 0.0
2016-Dec-03 04:33N 47°40' W 122°13'0 0.0
2016-Dec-03 03:33N 47°40' W 122°13'0 0.0
2016-Dec-03 02:31N 47°40' W 122°13'0 0.0
2016-Dec-03 01:32N 47°40' W 122°13'0 0.0
2016-Dec-03 00:32N 47°40' W 122°13'0 0.0
2016-Dec-02 23:33N 47°40' W 122°13'0 0.0
2016-Dec-02 22:31N 47°40' W 122°13'0 0.0
2016-Dec-02 21:31N 47°40' W 122°13'0 0.0
2016-Dec-02 20:32N 47°40' W 122°13'0 0.0
2016-Dec-02 19:33N 47°40' W 122°13'0 0.0
2016-Dec-02 18:31N 47°40' W 122°13'0 0.0
2016-Dec-02 17:31N 47°40' W 122°13'0 0.0
2016-Dec-02 16:32N 47°40' W 122°13'0 0.0
2016-Dec-02 15:32N 47°40' W 122°13'0 0.0
2016-Dec-02 14:33N 47°40' W 122°13'0 0.0
2016-Dec-02 13:31N 47°40' W 122°13'0 0.0
2016-Dec-02 12:31N 47°40' W 122°13'0 0.0
2016-Dec-02 11:32N 47°40' W 122°13'0 0.0
2016-Dec-02 10:33N 47°40' W 122°13'0 0.0
2016-Dec-02 09:33N 47°40' W 122°13'0 0.0
2016-Dec-02 08:28N 47°40' W 122°13'0 0.0
2016-Dec-02 07:32N 47°40' W 122°13'0 0.0
2016-Dec-02 06:33N 47°40' W 122°13'0 0.0
2016-Dec-02 05:33N 47°40' W 122°13'0 0.0
2016-Dec-02 04:31N 47°40' W 122°13'0 0.0
2016-Dec-02 03:31N 47°40' W 122°13'0 0.0
2016-Dec-02 02:32N 47°40' W 122°13'0 0.0
2016-Dec-02 01:33N 47°40' W 122°13'0 0.0
2016-Dec-02 00:33N 47°40' W 122°13'0 0.0
2016-Dec-01 23:31N 47°40' W 122°13'0 0.0
2016-Dec-01 22:29N 47°40' W 122°13'0 0.0
2016-Dec-01 21:32N 47°40' W 122°13'0 0.0
2016-Dec-01 20:30N 47°40' W 122°13'0 0.0
2016-Dec-01 19:31N 47°40' W 122°13'0 0.0
2016-Dec-01 18:32N 47°40' W 122°13'0 0.0
2016-Dec-01 17:20N 47°40' W 122°13'0 0.0
2016-Dec-01 16:33N 47°40' W 122°13'0 0.0
2016-Dec-01 15:33N 47°40' W 122°13'0 0.0
2016-Dec-01 14:31N 47°40' W 122°13'0 0.0
2016-Dec-01 13:32N 47°40' W 122°13'0 0.0
2016-Dec-01 12:33N 47°40' W 122°13'0 0.0
2016-Dec-01 11:33N 47°40' W 122°13'0 0.0
2016-Dec-01 10:31N 47°40' W 122°13'0 0.0
2016-Dec-01 09:31N 47°40' W 122°13'0 0.0
2016-Dec-01 08:32N 47°40' W 122°13'0 0.0
2016-Dec-01 07:33N 47°40' W 122°13'0 0.0
2016-Dec-01 06:33N 47°40' W 122°13'0 0.0
2016-Dec-01 05:32N 47°40' W 122°13'0 0.0
2016-Dec-01 04:32N 47°40' W 122°13'0 0.0
2016-Dec-01 03:26N 47°40' W 122°13'0 0.0
2016-Dec-01 02:30N 47°40' W 122°13'0 0.0
2016-Dec-01 01:13N 47°40' W 122°13'0 0.0
2016-Dec-01 00:31N 47°40' W 122°13'0 0.0
2016-Nov-30 23:32N 47°40' W 122°13'0 0.0
2016-Nov-30 22:33N 47°40' W 122°13'0 0.0
2016-Nov-30 21:33N 47°40' W 122°13'0 0.0
2016-Nov-30 20:31N 47°40' W 122°13'0 0.0
2016-Nov-30 19:29N 47°40' W 122°13'0 0.0
2016-Nov-30 18:32N 47°40' W 122°13'0 0.0
2016-Nov-30 17:30N 47°40' W 122°13'0 0.0
2016-Nov-30 16:31N 47°40' W 122°13'0 0.0
2016-Nov-30 15:28N 47°40' W 122°13'0 0.0
2016-Nov-30 14:32N 47°40' W 122°13'0 0.0
2016-Nov-30 13:33N 47°40' W 122°13'0 0.0
2016-Nov-30 12:33N 47°40' W 122°13'0 0.0
2016-Nov-30 11:31N 47°40' W 122°13'0 0.0
2016-Nov-30 10:32N 47°40' W 122°13'0 0.0
2016-Nov-30 09:32N 47°40' W 122°13'0 0.0
2016-Nov-30 08:33N 47°40' W 122°13'  

Dump ship's entire track history